Pagrindinis puslapis
METAR-TAF:

METAR-TAF

Oro uostai :

Okeechobee, Florida, Jungtinės Amerikos Valstijos

platuma: 27-15-58N, ilguma: 080-51-04W, Aukštis: 10 m

Dabartinis oras

Ataskaita buvo paskelbta 18 minutes, ne 07:55 UTC
Vėjas 14 kt iš Šiaurės Vakarų su gūsio iki 21 kt
Temperatūra 16°C
Drėgmė 82%
Slėgis 1017 hPa
Matomumas: 16.1 km
Išsisklaidę debesys ne aukštis 1600 ft
Apsiniaukę ne aukštis 2800 ft

METAR: KOBE 270755Z AUTO 31014G21KT 10SM SCT016 OVC028 16/13 A3003 RMK AO2

Laikas: 03:13 (08:13 UTC)


TAF: trūkstamas

Orai ataskaitas ir orų prognozės (METAR, TAF).

turimą stotys yra geltonos ir raudonos taškus žemėlapyje.

Perkelti pele per norėdami pamatyti stoties vardą.

Tada spustelėkite, norėdami matyti oro stebėjimo ir prognozės.

Norėdami pakeisti žemėlapį: spustelėkite ant žalios mygtukų su juodo kryžiaus žemyn,; žalią mygtuką su brūkšneliu, jei norite nutolinti; arba žalių rodyklių gretimoms žemėlapius.


METAR-TAF: